createdAt,value
2022-08-14T00:04:51.647Z,21.16
2022-08-14T00:10:50.284Z,21.11
2022-08-14T00:15:58.823Z,21.11
2022-08-14T00:21:19.849Z,21.13
2022-08-14T00:26:49.012Z,21.16
2022-08-14T00:32:52.249Z,21.15
2022-08-14T00:37:56.089Z,21.14
2022-08-14T00:43:17.763Z,21.15
2022-08-14T00:48:38.785Z,21.19
2022-08-14T00:54:05.294Z,21.12
2022-08-14T00:59:37.739Z,21.05
2022-08-14T01:05:01.531Z,21.00
2022-08-14T01:10:23.467Z,21.02
2022-08-14T01:16:01.159Z,20.98
2022-08-14T01:21:38.775Z,20.89
2022-08-14T01:27:07.594Z,20.79
2022-08-14T01:32:30.024Z,20.67
2022-08-14T01:37:56.400Z,20.60
2022-08-14T01:43:18.924Z,20.52
2022-08-14T01:48:44.385Z,20.57
2022-08-14T01:54:14.219Z,20.52
2022-08-14T01:59:37.817Z,20.64
2022-08-14T02:05:00.893Z,20.74
2022-08-14T02:10:26.299Z,20.74
2022-08-14T02:15:50.125Z,20.70
2022-08-14T02:21:12.544Z,20.70
2022-08-14T02:28:18.712Z,20.69
2022-08-14T02:32:30.142Z,20.55
2022-08-14T02:37:54.656Z,20.49
2022-08-14T02:43:15.332Z,20.55
2022-08-14T02:49:01.876Z,20.60
2022-08-14T02:54:23.451Z,20.61
2022-08-14T02:59:43.978Z,20.48
2022-08-14T03:05:05.841Z,20.37
2022-08-14T03:10:33.199Z,20.34
2022-08-14T03:15:57.782Z,20.39
2022-08-14T03:21:21.462Z,20.33
2022-08-14T03:26:44.900Z,20.30
2022-08-14T03:32:06.479Z,20.37
2022-08-14T03:37:51.774Z,20.36
2022-08-14T03:43:10.715Z,20.37
2022-08-14T03:48:31.656Z,20.46
2022-08-14T03:54:04.044Z,20.39
2022-08-14T03:59:24.979Z,20.36
2022-08-14T04:04:49.429Z,20.34
2022-08-14T04:10:11.018Z,20.33
2022-08-14T04:15:56.335Z,20.26
2022-08-14T04:21:17.232Z,20.26
2022-08-14T04:26:42.409Z,20.30
2022-08-14T04:33:00.980Z,20.34
2022-08-14T04:38:10.601Z,20.29
2022-08-14T04:43:47.910Z,20.19
2022-08-14T04:49:15.279Z,20.13
2022-08-14T04:54:35.903Z,20.15
2022-08-14T04:59:56.921Z,20.16
2022-08-14T05:05:17.589Z,20.30
2022-08-14T05:10:44.227Z,20.34
2022-08-14T05:16:06.809Z,20.48
2022-08-14T05:22:00.405Z,20.59
2022-08-14T05:27:11.322Z,20.62
2022-08-14T05:32:32.006Z,20.57
2022-08-14T05:37:53.457Z,20.55
2022-08-14T05:43:16.199Z,20.57
2022-08-14T05:48:42.905Z,20.49
2022-08-14T05:54:13.553Z,20.48
2022-08-14T05:59:45.006Z,20.56
2022-08-14T06:05:05.601Z,20.65
2022-08-14T06:10:30.690Z,20.81
2022-08-14T06:15:52.039Z,20.84
2022-08-14T06:21:15.841Z,20.75
2022-08-14T06:26:38.230Z,20.83
2022-08-14T06:32:38.664Z,21.00
2022-08-14T06:37:58.595Z,21.13
2022-08-14T06:43:21.014Z,21.25
2022-08-14T06:48:42.993Z,21.30
2022-08-14T06:54:03.865Z,21.46
2022-08-14T06:59:24.447Z,21.82
2022-08-14T07:05:05.534Z,22.20
2022-08-14T07:10:26.804Z,22.60
2022-08-14T07:15:50.511Z,22.79
2022-08-14T07:21:16.133Z,23.15
2022-08-14T07:26:38.788Z,23.48
2022-08-14T07:32:01.654Z,23.42
2022-08-14T07:37:22.314Z,23.65
2022-08-14T07:42:43.062Z,23.70
2022-08-14T07:48:07.449Z,23.81
2022-08-14T07:53:39.280Z,23.71
2022-08-14T07:59:01.381Z,23.94
2022-08-14T08:04:27.350Z,24.41
2022-08-14T08:09:53.491Z,24.41
2022-08-14T08:15:15.038Z,24.45
2022-08-14T08:20:40.875Z,24.40
2022-08-14T08:26:12.791Z,24.49
2022-08-14T08:31:51.089Z,24.42
2022-08-14T08:37:14.457Z,24.29
2022-08-14T08:42:41.495Z,24.06
2022-08-14T08:48:17.942Z,24.02
2022-08-14T08:53:41.471Z,23.86
2022-08-14T08:59:03.526Z,23.77
2022-08-14T09:04:26.292Z,23.81
2022-08-14T09:09:54.059Z,23.69
2022-08-14T09:15:20.413Z,23.55
2022-08-14T09:20:49.446Z,23.44
2022-08-14T09:26:21.182Z,23.38
2022-08-14T09:31:53.342Z,23.59
2022-08-14T09:37:49.628Z,23.78
2022-08-14T09:44:04.649Z,23.87
2022-08-14T09:49:40.639Z,24.06
2022-08-14T09:55:02.678Z,23.90
2022-08-14T10:00:42.427Z,23.76
2022-08-14T10:06:19.476Z,23.72
2022-08-14T10:11:43.595Z,23.62
2022-08-14T10:17:08.700Z,23.58
2022-08-14T10:23:21.819Z,23.76
2022-08-14T10:29:03.678Z,23.98
2022-08-14T10:34:14.132Z,24.31
2022-08-14T10:39:36.546Z,24.45
2022-08-14T10:44:57.763Z,24.58
2022-08-14T10:50:32.929Z,24.70
2022-08-14T10:55:59.402Z,24.78
2022-08-14T11:01:31.301Z,24.91
2022-08-14T11:06:59.441Z,24.97
2022-08-14T11:12:33.770Z,25.17
2022-08-14T11:18:01.149Z,25.20
2022-08-14T11:23:28.458Z,25.20
2022-08-14T11:29:02.809Z,25.14
2022-08-14T11:34:30.193Z,25.22
2022-08-14T11:39:54.138Z,25.14
2022-08-14T11:45:16.936Z,25.04
2022-08-14T11:50:39.494Z,25.00
2022-08-14T11:56:03.810Z,24.90
2022-08-14T12:01:31.228Z,25.00
2022-08-14T12:06:55.977Z,25.18
2022-08-14T12:12:36.191Z,25.36
2022-08-14T12:17:59.344Z,25.44
2022-08-14T12:23:23.084Z,25.41
2022-08-14T12:29:00.160Z,25.51
2022-08-14T12:34:24.149Z,25.46
2022-08-14T12:39:45.426Z,25.60
2022-08-14T12:45:11.109Z,25.66
2022-08-14T12:50:42.086Z,25.75
2022-08-14T12:56:21.293Z,25.97
2022-08-14T13:02:01.761Z,26.17
2022-08-14T13:07:32.075Z,26.27
2022-08-14T13:13:15.490Z,26.37
2022-08-14T13:18:41.282Z,26.40
2022-08-14T13:24:12.874Z,26.36
2022-08-14T13:29:43.858Z,26.34
2022-08-14T13:35:12.085Z,26.16
2022-08-14T13:40:37.369Z,26.04
2022-08-14T13:46:01.466Z,25.88
2022-08-14T13:51:26.706Z,25.64
2022-08-14T13:56:51.469Z,25.41
2022-08-14T14:02:13.431Z,25.17
2022-08-14T14:07:53.601Z,25.16
2022-08-14T14:13:17.757Z,25.18
2022-08-14T14:18:42.455Z,25.21
2022-08-14T14:24:04.777Z,25.24
2022-08-14T14:29:26.534Z,25.10
2022-08-14T14:34:53.400Z,25.00
2022-08-14T14:40:54.372Z,25.10
2022-08-14T14:45:59.698Z,25.20
2022-08-14T14:51:22.083Z,25.17
2022-08-14T14:56:47.418Z,25.15
2022-08-14T15:02:30.936Z,25.29
2022-08-14T15:07:52.872Z,25.35
2022-08-14T15:13:13.583Z,25.34
2022-08-14T15:18:36.889Z,25.36
2022-08-14T15:24:01.224Z,25.31
2022-08-14T15:29:21.910Z,25.18
2022-08-14T15:34:51.274Z,25.02
2022-08-14T15:40:22.092Z,24.95
2022-08-14T15:45:43.214Z,24.95
2022-08-14T15:51:04.860Z,24.93
2022-08-14T15:56:32.922Z,24.95
2022-08-14T16:02:04.211Z,25.00
2022-08-14T16:07:27.288Z,24.99
2022-08-14T16:12:50.496Z,25.00
2022-08-14T16:18:18.594Z,24.93
2022-08-14T16:23:44.578Z,24.93
2022-08-14T16:29:07.713Z,24.86
2022-08-14T16:34:45.520Z,24.81
2022-08-14T16:40:12.776Z,24.79
2022-08-14T16:45:43.395Z,24.71
2022-08-14T16:51:06.719Z,24.70
2022-08-14T16:56:36.178Z,24.64
2022-08-14T17:02:00.793Z,24.60
2022-08-14T17:07:26.523Z,24.54
2022-08-14T17:12:48.541Z,24.43
2022-08-14T17:18:22.134Z,24.37
2022-08-14T17:23:44.656Z,24.28
2022-08-14T17:29:08.494Z,24.26
2022-08-14T17:34:45.599Z,24.25
2022-08-14T17:40:19.042Z,24.28
2022-08-14T17:45:41.873Z,24.28
2022-08-14T17:51:03.885Z,24.26
2022-08-14T17:56:30.901Z,24.08
2022-08-14T18:01:53.169Z,23.94
2022-08-14T18:08:31.494Z,23.66
2022-08-14T18:13:01.756Z,23.55
2022-08-14T18:18:22.796Z,23.52
2022-08-14T18:23:43.641Z,23.48
2022-08-14T18:29:14.659Z,23.44
2022-08-14T18:34:38.127Z,23.54
2022-08-14T18:40:18.060Z,23.37
2022-08-14T18:45:58.935Z,23.38
2022-08-14T18:51:45.175Z,23.12
2022-08-14T18:57:09.013Z,23.01
2022-08-14T19:02:42.903Z,22.95
2022-08-14T19:08:28.204Z,22.94
2022-08-14T19:13:51.761Z,22.87
2022-08-14T19:19:14.275Z,22.80
2022-08-14T19:24:34.866Z,22.74
2022-08-14T19:30:20.398Z,22.62
2022-08-14T19:35:55.089Z,22.53
2022-08-14T19:41:34.645Z,22.36
2022-08-14T19:47:00.387Z,22.33
2022-08-14T19:52:30.044Z,22.24
2022-08-14T19:57:58.200Z,22.10
2022-08-14T20:03:23.903Z,22.03
2022-08-14T20:10:58.563Z,22.02
2022-08-14T20:14:30.721Z,21.99
2022-08-14T20:19:51.638Z,21.86
2022-08-14T20:25:22.945Z,21.68
2022-08-14T20:30:44.035Z,21.79
2022-08-14T20:36:15.387Z,21.78
2022-08-14T20:41:48.945Z,21.88
2022-08-14T20:47:16.979Z,21.77
2022-08-14T20:52:40.483Z,21.65
2022-08-14T20:58:09.875Z,21.56
2022-08-14T21:03:58.591Z,21.58
2022-08-14T21:10:05.813Z,21.68
2022-08-14T21:15:11.261Z,21.53
2022-08-14T21:20:42.963Z,21.36
2022-08-14T21:26:07.516Z,21.19
2022-08-14T21:31:30.162Z,21.14
2022-08-14T21:36:52.997Z,21.24
2022-08-14T21:42:13.760Z,21.29
2022-08-14T21:47:37.960Z,21.26
2022-08-14T21:53:05.421Z,21.10
2022-08-14T21:58:54.146Z,20.97
2022-08-14T22:04:33.260Z,20.92
2022-08-14T22:09:54.816Z,20.93
2022-08-14T22:15:18.398Z,20.92
2022-08-14T22:20:41.145Z,20.92
2022-08-14T22:26:01.712Z,20.95
2022-08-14T22:31:24.319Z,20.90
2022-08-14T22:36:55.992Z,20.92
2022-08-14T22:42:20.902Z,20.77
2022-08-14T22:47:43.999Z,20.76
2022-08-14T22:53:06.794Z,20.78
2022-08-14T22:58:31.434Z,20.54
2022-08-14T23:03:55.501Z,20.47
2022-08-14T23:09:36.238Z,20.48
2022-08-14T23:15:00.312Z,20.44
2022-08-14T23:20:22.993Z,20.51
2022-08-14T23:25:58.881Z,20.61
2022-08-14T23:31:34.426Z,20.59
2022-08-14T23:36:57.547Z,20.50
2022-08-14T23:42:18.194Z,20.58
2022-08-14T23:47:51.605Z,20.67
2022-08-14T23:53:28.567Z,20.52
2022-08-14T23:59:07.048Z,20.45
